createdAt,value
2023-04-26T00:01:27.596Z,2.50
2023-04-26T00:03:57.571Z,3.17
2023-04-26T00:06:27.442Z,3.10
2023-04-26T00:08:56.235Z,3.00
2023-04-26T00:11:24.300Z,2.97
2023-04-26T00:13:52.401Z,3.17
2023-04-26T00:16:21.038Z,2.77
2023-04-26T00:18:49.393Z,3.00
2023-04-26T00:21:18.892Z,2.70
2023-04-26T00:23:46.958Z,2.43
2023-04-26T00:26:14.984Z,3.43
2023-04-26T00:28:43.029Z,2.60
2023-04-26T00:31:16.172Z,2.47
2023-04-26T00:33:44.980Z,2.67
2023-04-26T00:36:14.594Z,2.80
2023-04-26T00:38:43.980Z,3.00
2023-04-26T00:41:12.018Z,2.87
2023-04-26T00:43:40.792Z,3.13
2023-04-26T00:46:10.273Z,2.80
2023-04-26T00:48:38.948Z,3.23
2023-04-26T00:51:07.469Z,3.17
2023-04-26T00:53:35.834Z,2.67
2023-04-26T00:56:07.796Z,3.30
2023-04-26T00:58:36.003Z,2.30
2023-04-26T01:01:04.168Z,2.67
2023-04-26T01:03:32.489Z,2.90
2023-04-26T01:06:01.016Z,2.90
2023-04-26T01:08:29.678Z,2.73
2023-04-26T01:10:58.117Z,2.73
2023-04-26T01:13:27.700Z,2.53
2023-04-26T01:15:57.282Z,2.80
2023-04-26T01:18:25.682Z,2.70
2023-04-26T01:20:54.026Z,3.00
2023-04-26T01:23:23.490Z,2.67
2023-04-26T01:25:51.664Z,2.53
2023-04-26T01:28:19.726Z,3.27
2023-04-26T01:30:47.871Z,3.40
2023-04-26T01:33:16.345Z,2.80
2023-04-26T01:35:44.433Z,2.60
2023-04-26T01:38:14.511Z,2.93
2023-04-26T01:40:46.271Z,3.30
2023-04-26T01:43:15.544Z,2.50
2023-04-26T01:45:43.605Z,2.50
2023-04-26T01:48:11.649Z,2.50
2023-04-26T01:50:39.722Z,3.00
2023-04-26T01:53:07.762Z,2.90
2023-04-26T01:55:35.969Z,3.13
2023-04-26T01:58:05.570Z,2.90
2023-04-26T02:00:34.803Z,3.03
2023-04-26T02:03:02.960Z,3.00
2023-04-26T02:05:31.127Z,4.10
2023-04-26T02:07:59.373Z,2.30
2023-04-26T02:10:27.487Z,3.00
2023-04-26T02:12:55.521Z,2.70
2023-04-26T02:15:24.935Z,3.07
2023-04-26T02:17:53.737Z,3.07
2023-04-26T02:20:22.092Z,3.00
2023-04-26T02:22:50.175Z,2.83
2023-04-26T02:25:18.585Z,2.53
2023-04-26T02:27:46.649Z,3.00
2023-04-26T02:30:14.907Z,2.63
2023-04-26T02:32:44.392Z,3.07
2023-04-26T02:35:12.476Z,2.70
2023-04-26T02:37:40.770Z,2.47
2023-04-26T02:40:11.122Z,2.83
2023-04-26T02:42:39.306Z,2.67
2023-04-26T02:45:08.578Z,2.43
2023-04-26T02:47:38.577Z,2.57
2023-04-26T02:50:09.566Z,2.47
2023-04-26T02:52:38.002Z,2.60
2023-04-26T02:55:07.158Z,2.40
2023-04-26T02:57:35.534Z,2.40
2023-04-26T03:00:05.398Z,2.10
2023-04-26T03:02:33.618Z,2.47
2023-04-26T03:05:02.350Z,2.27
2023-04-26T03:07:33.039Z,2.30
2023-04-26T03:10:01.904Z,2.80
2023-04-26T03:12:29.974Z,2.50
2023-04-26T03:14:58.112Z,2.40
2023-04-26T03:17:26.458Z,2.40
2023-04-26T03:19:54.518Z,2.73
2023-04-26T03:22:22.702Z,2.20
2023-04-26T03:24:52.183Z,2.77
2023-04-26T03:27:20.239Z,2.47
2023-04-26T03:29:48.272Z,2.50
2023-04-26T03:32:16.456Z,2.20
2023-04-26T03:34:44.536Z,2.33
2023-04-26T03:37:13.364Z,2.20
2023-04-26T03:39:41.437Z,2.90
2023-04-26T03:42:13.591Z,2.50
2023-04-26T03:44:41.827Z,1.90
2023-04-26T03:47:09.878Z,2.17
2023-04-26T03:49:37.935Z,2.50
2023-04-26T03:52:06.292Z,2.40
2023-04-26T03:54:35.356Z,2.57
2023-04-26T03:57:03.391Z,2.27
2023-04-26T03:59:32.903Z,2.20
2023-04-26T04:02:00.998Z,2.33
2023-04-26T04:04:29.378Z,2.00
2023-04-26T04:06:57.567Z,2.70
2023-04-26T04:09:25.681Z,3.07
2023-04-26T04:11:54.533Z,3.30
2023-04-26T04:14:22.585Z,2.23
2023-04-26T04:16:52.008Z,2.67
2023-04-26T04:19:42.161Z,2.97
2023-04-26T04:22:10.421Z,2.30
2023-04-26T04:24:38.464Z,2.33
2023-04-26T04:27:06.545Z,2.30
2023-04-26T04:29:35.020Z,2.10
2023-04-26T04:32:05.155Z,2.50
2023-04-26T04:34:36.243Z,3.00
2023-04-26T04:37:05.280Z,1.90
2023-04-26T04:39:33.344Z,2.17
2023-04-26T04:42:01.493Z,2.27
2023-04-26T04:44:29.558Z,2.53
2023-04-26T04:46:58.418Z,2.40
2023-04-26T04:49:27.880Z,2.37
2023-04-26T04:51:56.197Z,2.60
2023-04-26T04:54:24.822Z,2.57
2023-04-26T04:56:52.882Z,2.50
2023-04-26T04:59:20.961Z,2.63
2023-04-26T05:01:49.034Z,3.00
2023-04-26T05:04:17.362Z,3.17
2023-04-26T05:06:46.925Z,3.20
2023-04-26T05:09:15.184Z,2.77
2023-04-26T05:11:43.277Z,2.67
2023-04-26T05:14:11.356Z,2.20
2023-04-26T05:16:39.534Z,2.60
2023-04-26T05:19:09.486Z,2.80
2023-04-26T05:21:37.841Z,2.40
2023-04-26T05:24:07.709Z,2.40
2023-04-26T05:26:36.999Z,2.57
2023-04-26T05:29:05.087Z,2.83
2023-04-26T05:31:33.225Z,2.40
2023-04-26T05:34:01.325Z,2.27
2023-04-26T05:36:30.132Z,1.77
2023-04-26T05:38:58.203Z,2.73
2023-04-26T05:41:27.617Z,2.50
2023-04-26T05:43:55.799Z,2.10
2023-04-26T05:46:24.224Z,2.13
2023-04-26T05:48:52.349Z,2.30
2023-04-26T05:51:20.579Z,2.30
2023-04-26T05:53:48.642Z,2.63
2023-04-26T05:56:16.724Z,2.10
2023-04-26T05:58:46.262Z,2.13
2023-04-26T06:01:14.861Z,2.40
2023-04-26T06:03:43.169Z,2.23
2023-04-26T06:06:11.382Z,2.83
2023-04-26T06:08:39.541Z,2.33
2023-04-26T06:11:07.721Z,2.17
2023-04-26T06:13:35.798Z,1.97
2023-04-26T06:16:05.891Z,2.70
2023-04-26T06:18:33.958Z,2.70
2023-04-26T06:21:02.051Z,2.10
2023-04-26T06:23:30.206Z,2.17
2023-04-26T06:25:58.272Z,2.10
2023-04-26T06:28:26.880Z,2.03
2023-04-26T06:30:55.026Z,1.90
2023-04-26T06:33:24.586Z,2.07
2023-04-26T06:35:52.727Z,1.80
2023-04-26T06:38:21.028Z,2.00
2023-04-26T06:40:49.179Z,1.97
2023-04-26T06:43:17.242Z,2.17
2023-04-26T06:45:45.333Z,1.70
2023-04-26T06:48:13.455Z,2.20
2023-04-26T06:50:42.973Z,1.70
2023-04-26T06:53:11.005Z,2.07
2023-04-26T06:55:39.075Z,2.00
2023-04-26T06:58:07.136Z,1.87
2023-04-26T07:00:35.278Z,2.00
2023-04-26T07:03:03.548Z,2.50
2023-04-26T07:05:31.929Z,2.30
2023-04-26T07:08:01.369Z,4.57
2023-04-26T07:10:29.444Z,3.23
2023-04-26T07:12:57.710Z,2.90
2023-04-26T07:15:25.900Z,3.40
2023-04-26T07:17:54.112Z,2.80
2023-04-26T07:20:22.893Z,2.07
2023-04-26T07:22:51.244Z,2.27
2023-04-26T07:25:20.982Z,2.17
2023-04-26T07:27:51.624Z,2.80
2023-04-26T07:30:19.675Z,2.10
2023-04-26T07:32:48.505Z,1.70
2023-04-26T07:35:16.923Z,1.70
2023-04-26T07:37:45.419Z,2.33
2023-04-26T07:40:14.971Z,1.83
2023-04-26T07:42:44.396Z,2.20
2023-04-26T07:45:13.453Z,2.43
2023-04-26T07:47:41.594Z,2.90
2023-04-26T07:50:11.525Z,4.53
2023-04-26T07:52:39.757Z,3.87
2023-04-26T07:55:09.497Z,3.50
2023-04-26T07:57:37.843Z,3.60
2023-04-26T08:00:09.817Z,4.83
2023-04-26T08:05:11.797Z,4.20
2023-04-26T08:07:40.065Z,4.03
2023-04-26T08:10:08.953Z,4.33
2023-04-26T08:12:38.005Z,2.90
2023-04-26T08:15:08.568Z,3.77
2023-04-26T08:17:36.919Z,3.70
2023-04-26T08:20:06.143Z,4.83
2023-04-26T08:22:34.239Z,3.27
2023-04-26T08:25:02.325Z,4.00
2023-04-26T08:27:31.909Z,3.80
2023-04-26T08:30:00.311Z,3.20
2023-04-26T08:32:29.805Z,3.53
2023-04-26T08:34:57.913Z,3.40
2023-04-26T08:37:26.999Z,3.90
2023-04-26T08:39:56.869Z,6.03
2023-04-26T08:42:28.669Z,3.80
2023-04-26T08:44:57.558Z,3.57
2023-04-26T08:47:34.978Z,4.23
2023-04-26T08:50:04.948Z,3.97
2023-04-26T08:52:34.173Z,3.60
2023-04-26T08:55:05.082Z,3.50
2023-04-26T08:57:34.058Z,3.40
2023-04-26T09:00:05.711Z,3.80
2023-04-26T09:02:36.566Z,3.80
2023-04-26T09:05:07.015Z,4.40
2023-04-26T09:07:43.376Z,3.43
2023-04-26T09:10:13.396Z,3.87
2023-04-26T09:12:41.699Z,3.23
2023-04-26T09:15:10.680Z,3.37
2023-04-26T09:17:41.846Z,3.03
2023-04-26T09:20:22.214Z,4.10
2023-04-26T09:22:52.135Z,4.03
2023-04-26T09:25:27.785Z,4.13
2023-04-26T09:27:56.388Z,3.80
2023-04-26T09:30:24.835Z,4.40
2023-04-26T09:32:56.583Z,4.00
2023-04-26T09:35:30.134Z,4.37
2023-04-26T09:38:04.745Z,4.20
2023-04-26T09:40:38.650Z,3.63
2023-04-26T09:43:08.214Z,3.63
2023-04-26T09:45:46.221Z,4.10
2023-04-26T09:48:17.607Z,3.60
2023-04-26T09:50:46.969Z,3.20
2023-04-26T09:53:28.048Z,2.70
2023-04-26T09:55:56.757Z,3.00
2023-04-26T09:58:24.922Z,2.90
2023-04-26T10:00:54.629Z,3.27
2023-04-26T10:03:24.673Z,2.53
2023-04-26T10:05:53.860Z,3.00
2023-04-26T10:08:22.063Z,3.60
2023-04-26T10:10:51.384Z,2.63
2023-04-26T10:13:20.264Z,2.60
2023-04-26T10:15:49.551Z,2.90
2023-04-26T10:18:17.704Z,2.37
2023-04-26T10:20:53.094Z,2.67
2023-04-26T10:23:22.466Z,2.20
2023-04-26T10:25:50.693Z,2.63
2023-04-26T10:28:19.396Z,2.73
2023-04-26T10:30:57.624Z,2.30
2023-04-26T10:33:26.196Z,2.07
2023-04-26T10:36:17.238Z,2.27
2023-04-26T10:39:20.511Z,2.23
2023-04-26T10:41:48.805Z,2.30
2023-04-26T10:44:39.450Z,1.70
2023-04-26T10:47:08.557Z,2.20
2023-04-26T10:49:48.162Z,1.60
2023-04-26T10:52:20.107Z,2.13
2023-04-26T10:54:57.379Z,1.97
2023-04-26T10:57:47.303Z,1.50
2023-04-26T11:00:32.009Z,1.80
2023-04-26T11:03:06.529Z,1.70
2023-04-26T11:05:52.543Z,1.70
2023-04-26T11:08:25.529Z,2.10
2023-04-26T11:11:09.942Z,1.53
2023-04-26T11:13:39.730Z,2.20
2023-04-26T11:16:09.432Z,1.50
2023-04-26T11:18:39.873Z,2.13
2023-04-26T11:21:08.371Z,1.53
2023-04-26T11:23:38.100Z,1.73
2023-04-26T11:26:08.373Z,1.60
2023-04-26T11:28:38.310Z,1.60
2023-04-26T11:31:07.514Z,1.73
2023-04-26T11:33:35.701Z,1.60
2023-04-26T11:36:04.453Z,2.00
2023-04-26T11:38:32.552Z,1.93
2023-04-26T11:41:03.080Z,1.60
2023-04-26T11:43:35.510Z,1.90
2023-04-26T11:46:04.669Z,1.87
2023-04-26T11:48:34.514Z,1.83
2023-04-26T11:51:04.632Z,1.80
2023-04-26T11:53:39.670Z,2.27
2023-04-26T11:56:17.230Z,1.53
2023-04-26T11:58:47.185Z,2.10
2023-04-26T12:01:22.167Z,1.60
2023-04-26T12:03:52.535Z,1.80
2023-04-26T12:06:21.359Z,1.83
2023-04-26T12:08:52.749Z,1.80
2023-04-26T12:11:22.437Z,2.10
2023-04-26T12:13:50.766Z,2.10
2023-04-26T12:16:26.314Z,1.83
2023-04-26T12:18:56.759Z,1.83
2023-04-26T12:21:30.381Z,1.77
2023-04-26T12:23:58.945Z,2.07
2023-04-26T12:29:21.340Z,1.70
2023-04-26T12:31:49.516Z,1.80
2023-04-26T12:34:17.643Z,2.23
2023-04-26T12:36:45.705Z,1.40
2023-04-26T12:39:15.710Z,1.80
2023-04-26T12:41:44.415Z,1.60
2023-04-26T12:44:14.386Z,1.20
2023-04-26T12:46:44.049Z,2.60
2023-04-26T12:49:12.304Z,1.53
2023-04-26T12:51:40.751Z,1.67
2023-04-26T12:54:09.206Z,1.97
2023-04-26T12:56:40.745Z,1.30
2023-04-26T12:59:08.860Z,1.43
2023-04-26T13:01:37.156Z,1.50
2023-04-26T13:04:06.981Z,1.40
2023-04-26T13:06:36.118Z,1.80
2023-04-26T13:09:04.303Z,1.73
2023-04-26T13:11:32.395Z,1.73
2023-04-26T13:14:02.045Z,1.63
2023-04-26T13:16:30.180Z,1.27
2023-04-26T13:18:58.289Z,1.10
2023-04-26T13:21:27.838Z,1.80
2023-04-26T13:23:55.921Z,1.17
2023-04-26T13:26:25.801Z,1.60
2023-04-26T13:28:55.273Z,1.83
2023-04-26T13:31:23.404Z,1.67
2023-04-26T13:33:51.803Z,1.23
2023-04-26T13:36:19.846Z,1.83
2023-04-26T13:38:49.265Z,1.30
2023-04-26T13:41:17.496Z,1.40
2023-04-26T13:43:45.584Z,1.20
2023-04-26T13:46:13.829Z,1.50
2023-04-26T13:48:42.246Z,1.60
2023-04-26T13:51:11.412Z,1.30
2023-04-26T13:53:39.814Z,1.10
2023-04-26T13:56:09.654Z,1.40
2023-04-26T13:58:37.755Z,1.20
2023-04-26T14:01:06.110Z,1.20
2023-04-26T14:03:34.955Z,1.40
2023-04-26T14:06:03.933Z,1.87
2023-04-26T14:08:32.098Z,1.70
2023-04-26T14:11:00.507Z,1.23
2023-04-26T14:13:30.019Z,1.27
2023-04-26T14:15:58.155Z,1.00
2023-04-26T14:18:26.309Z,1.33
2023-04-26T14:20:54.385Z,1.20
2023-04-26T14:23:22.499Z,1.43
2023-04-26T14:25:53.329Z,1.30
2023-04-26T14:28:21.806Z,1.27
2023-04-26T14:30:51.274Z,1.07
2023-04-26T14:33:19.346Z,8.17
2023-04-26T14:35:47.896Z,1.77
2023-04-26T14:38:16.192Z,1.50
2023-04-26T14:40:45.113Z,1.37
2023-04-26T14:43:13.364Z,1.27
2023-04-26T14:45:44.910Z,1.03
2023-04-26T14:48:14.894Z,1.20
2023-04-26T14:50:43.443Z,1.00
2023-04-26T14:53:11.924Z,1.30
2023-04-26T14:55:40.154Z,1.50
2023-04-26T14:58:08.528Z,1.40
2023-04-26T15:00:36.745Z,1.33
2023-04-26T15:03:05.171Z,1.40
2023-04-26T15:05:34.680Z,0.90
2023-04-26T15:08:04.030Z,1.30
2023-04-26T15:10:32.062Z,1.20
2023-04-26T15:13:00.199Z,1.13
2023-04-26T15:15:28.363Z,1.43
2023-04-26T15:17:56.436Z,1.50
2023-04-26T15:20:24.573Z,1.30
2023-04-26T15:22:54.036Z,1.40
2023-04-26T15:25:22.127Z,1.43
2023-04-26T15:27:50.643Z,1.40
2023-04-26T15:30:18.712Z,1.20
2023-04-26T15:32:49.708Z,1.43
2023-04-26T15:35:18.043Z,1.20
2023-04-26T15:37:46.378Z,1.17
2023-04-26T15:40:15.918Z,1.20
2023-04-26T15:42:44.012Z,1.17
2023-04-26T15:45:12.720Z,1.50
2023-04-26T15:47:40.881Z,1.40
2023-04-26T15:50:09.803Z,1.27
2023-04-26T15:52:39.489Z,1.30
2023-04-26T15:55:08.549Z,1.33
2023-04-26T15:57:38.354Z,1.13
2023-04-26T16:00:09.723Z,1.43
2023-04-26T16:02:37.901Z,1.87
2023-04-26T16:05:08.295Z,1.70
2023-04-26T16:07:38.704Z,1.70
2023-04-26T16:10:08.343Z,1.20
2023-04-26T16:12:39.605Z,1.20
2023-04-26T16:15:09.395Z,1.33
2023-04-26T16:17:38.506Z,1.30
2023-04-26T16:20:08.258Z,1.33
2023-04-26T16:22:37.083Z,1.60
2023-04-26T16:25:06.743Z,1.57
2023-04-26T16:27:35.041Z,1.70
2023-04-26T16:30:05.643Z,1.70
2023-04-26T16:32:34.208Z,1.30
2023-04-26T16:35:02.538Z,1.80
2023-04-26T16:37:31.372Z,1.80
2023-04-26T16:39:59.440Z,1.80
2023-04-26T16:42:27.497Z,1.50
2023-04-26T16:44:56.460Z,2.03
2023-04-26T16:47:26.559Z,1.53
2023-04-26T16:49:54.616Z,2.20
2023-04-26T16:52:22.689Z,1.40
2023-04-26T16:54:50.742Z,1.83
2023-04-26T16:57:18.910Z,2.63
2023-04-26T16:59:47.475Z,2.37
2023-04-26T17:02:15.766Z,1.47
2023-04-26T17:04:45.500Z,1.60
2023-04-26T17:07:13.813Z,1.60
2023-04-26T17:09:41.918Z,1.70
2023-04-26T17:12:10.230Z,1.90
2023-04-26T17:14:38.289Z,1.63
2023-04-26T17:17:06.337Z,1.87
2023-04-26T17:19:34.391Z,1.70
2023-04-26T17:22:03.839Z,1.70
2023-04-26T17:24:31.909Z,2.17
2023-04-26T17:26:59.938Z,1.90
2023-04-26T17:29:28.172Z,2.00
2023-04-26T17:31:56.284Z,1.33
2023-04-26T17:34:24.344Z,1.90
2023-04-26T17:36:52.971Z,1.30
2023-04-26T17:39:22.484Z,1.30
2023-04-26T17:41:51.337Z,1.30
2023-04-26T17:44:19.426Z,1.50
2023-04-26T17:46:47.462Z,1.90
2023-04-26T17:49:15.830Z,1.50
2023-04-26T17:51:43.913Z,1.70
2023-04-26T17:54:12.000Z,2.17
2023-04-26T17:56:41.462Z,1.33
2023-04-26T17:59:09.493Z,1.53
2023-04-26T18:01:37.656Z,1.60
2023-04-26T18:04:06.324Z,1.80
2023-04-26T18:06:34.543Z,1.73
2023-04-26T18:09:02.580Z,2.60
2023-04-26T18:11:30.625Z,1.87
2023-04-26T18:14:00.166Z,1.83
2023-04-26T18:16:29.137Z,1.60
2023-04-26T18:18:57.586Z,1.73
2023-04-26T18:21:26.528Z,2.30
2023-04-26T18:23:54.591Z,1.67
2023-04-26T18:26:23.097Z,3.03
2023-04-26T18:28:51.174Z,1.73
2023-04-26T18:31:20.975Z,2.10
2023-04-26T18:33:49.486Z,2.10
2023-04-26T18:36:18.306Z,1.93
2023-04-26T18:38:46.491Z,3.00
2023-04-26T18:41:14.529Z,2.00
2023-04-26T18:43:42.679Z,1.90
2023-04-26T18:46:10.820Z,1.63
2023-04-26T18:48:40.255Z,2.17
2023-04-26T18:51:08.671Z,2.90
2023-04-26T18:53:36.898Z,2.00
2023-04-26T18:56:05.304Z,2.17
2023-04-26T18:58:33.364Z,2.10
2023-04-26T19:01:01.521Z,1.53
2023-04-26T19:03:29.822Z,2.27
2023-04-26T19:05:59.334Z,2.80
2023-04-26T19:08:27.512Z,3.23
2023-04-26T19:10:55.568Z,2.33
2023-04-26T19:13:23.610Z,2.90
2023-04-26T19:15:51.701Z,1.97
2023-04-26T19:18:19.841Z,2.50
2023-04-26T19:20:48.717Z,2.70
2023-04-26T19:23:18.389Z,2.10
2023-04-26T19:25:46.719Z,2.00
2023-04-26T19:28:15.956Z,2.40
2023-04-26T19:30:44.067Z,2.97
2023-04-26T19:33:12.145Z,2.60
2023-04-26T19:35:40.179Z,2.70
2023-04-26T19:38:09.861Z,2.80
2023-04-26T19:40:39.910Z,2.50
2023-04-26T19:43:08.025Z,4.07
2023-04-26T19:45:36.224Z,2.97
2023-04-26T19:48:04.683Z,2.93
2023-04-26T19:50:32.785Z,3.13
2023-04-26T19:53:00.823Z,3.20
2023-04-26T19:55:29.821Z,2.70
2023-04-26T19:57:59.452Z,2.73
2023-04-26T20:00:30.198Z,3.10
2023-04-26T20:02:59.101Z,3.20
2023-04-26T20:05:27.607Z,3.23
2023-04-26T20:07:56.651Z,3.47
2023-04-26T20:10:24.934Z,4.30
2023-04-26T20:12:53.246Z,3.57
2023-04-26T20:15:22.914Z,3.00
2023-04-26T20:17:51.079Z,3.03
2023-04-26T20:20:19.294Z,3.77
2023-04-26T20:22:47.350Z,7.30
2023-04-26T20:25:15.549Z,5.03
2023-04-26T20:27:43.636Z,4.17
2023-04-26T20:30:12.591Z,3.40
2023-04-26T20:32:42.093Z,5.00
2023-04-26T20:35:12.809Z,4.30
2023-04-26T20:37:40.944Z,4.53
2023-04-26T20:40:10.197Z,4.27
2023-04-26T20:42:38.230Z,4.27
2023-04-26T20:45:07.243Z,6.20
2023-04-26T20:47:36.794Z,5.60
2023-04-26T20:50:07.085Z,6.33
2023-04-26T20:52:35.300Z,6.10
2023-04-26T20:55:03.381Z,5.90
2023-04-26T20:57:31.490Z,5.43
2023-04-26T20:59:59.557Z,5.73
2023-04-26T21:02:27.728Z,5.57
2023-04-26T21:04:55.988Z,5.00
2023-04-26T21:07:25.517Z,4.77
2023-04-26T21:09:53.595Z,5.10
2023-04-26T21:12:21.890Z,4.33
2023-04-26T21:14:49.931Z,5.17
2023-04-26T21:17:18.105Z,3.70
2023-04-26T21:19:46.373Z,4.17
2023-04-26T21:22:14.482Z,4.63
2023-04-26T21:24:43.908Z,4.70
2023-04-26T21:27:11.973Z,3.60
2023-04-26T21:29:40.116Z,4.17
2023-04-26T21:32:08.198Z,3.50
2023-04-26T21:34:36.518Z,3.10
2023-04-26T21:37:04.776Z,2.90
2023-04-26T21:39:32.834Z,2.77
2023-04-26T21:42:03.415Z,2.87
2023-04-26T21:44:31.502Z,2.80
2023-04-26T21:46:59.669Z,2.43
2023-04-26T21:49:27.805Z,2.50
2023-04-26T21:51:55.883Z,2.23
2023-04-26T21:54:23.935Z,2.40
2023-04-26T21:56:51.995Z,2.37
2023-04-26T21:59:21.407Z,2.57
2023-04-26T22:01:49.464Z,2.03
2023-04-26T22:04:17.774Z,2.30
2023-04-26T22:06:45.990Z,2.00
2023-04-26T22:09:14.027Z,2.50
2023-04-26T22:11:42.089Z,2.57
2023-04-26T22:14:10.124Z,2.17
2023-04-26T22:16:39.752Z,2.80
2023-04-26T22:19:07.954Z,2.40
2023-04-26T22:21:36.479Z,2.20
2023-04-26T22:24:04.784Z,2.20
2023-04-26T22:26:32.885Z,3.03
2023-04-26T22:29:01.256Z,2.10
2023-04-26T22:31:29.322Z,2.53
2023-04-26T22:33:58.804Z,2.10
2023-04-26T22:36:26.982Z,2.13
2023-04-26T22:38:55.082Z,2.90
2023-04-26T22:41:23.635Z,2.43
2023-04-26T22:43:53.252Z,2.40
2023-04-26T22:46:21.493Z,2.43
2023-04-26T22:48:49.635Z,2.50
2023-04-26T22:51:19.060Z,2.27
2023-04-26T22:53:47.153Z,2.80
2023-04-26T22:56:15.268Z,3.10
2023-04-26T22:58:43.333Z,2.90
2023-04-26T23:01:11.566Z,2.80
2023-04-26T23:03:39.815Z,2.53
2023-04-26T23:06:08.343Z,3.03
2023-04-26T23:08:37.774Z,2.53
2023-04-26T23:11:08.784Z,3.10
2023-04-26T23:13:37.163Z,2.53
2023-04-26T23:16:05.575Z,2.60
2023-04-26T23:18:34.159Z,2.80
2023-04-26T23:21:02.586Z,3.03
2023-04-26T23:23:31.601Z,2.50
2023-04-26T23:26:01.066Z,2.37
2023-04-26T23:28:29.133Z,2.53
2023-04-26T23:30:57.233Z,2.87
2023-04-26T23:33:25.438Z,2.83
2023-04-26T23:35:56.918Z,2.57
2023-04-26T23:38:25.052Z,3.20
2023-04-26T23:40:53.131Z,4.03
2023-04-26T23:43:22.541Z,3.80
2023-04-26T23:45:50.572Z,3.53
2023-04-26T23:48:18.899Z,4.27
2023-04-26T23:50:47.080Z,4.40
2023-04-26T23:53:15.117Z,5.43
2023-04-26T23:55:43.176Z,6.93
2023-04-26T23:58:11.233Z,7.23
